Time;durP1;ratioP1;P1;durP2;ratioP2;P2;SDS_P1;SDS_P2;PMS_P1;PMS_P2;Temp;Humidity;BMP_temperature;BMP_pressure;BME280_temperature;BME280_humidity;BME280_pressure;Samples;Min_cycle;Max_cycle;Signal;HPM_P1;HPM_P2
2022/05/31 00:01:46;;;;;;;4.03;3.60;;;;;;;;;;4927264;29;20039;-80
2022/05/31 00:04:12;;;;;;;4.35;3.95;;;;;;;;;;4950234;28;20047;-79
2022/05/31 00:06:39;;;;;;;4.05;3.75;;;;;;;;;;4945535;28;20035;-80
2022/05/31 00:09:05;;;;;;;4.55;4.15;;;;;;;;;;4946517;29;20039;-81
2022/05/31 00:11:31;;;;;;;4.40;4.00;;;;;;;;;;4947448;28;20043;-81
2022/05/31 00:13:57;;;;;;;5.10;4.10;;;;;;;;;;4950215;28;20488;-82
2022/05/31 00:16:23;;;;;;;7.30;5.10;;;;;;;;;;4948674;28;20114;-81
2022/05/31 00:18:49;;;;;;;7.47;6.00;;;;;;;;;;4943803;28;20083;-83
2022/05/31 00:21:15;;;;;;;8.45;5.78;;;;;;;;;;4935031;29;20114;-81
2022/05/31 00:23:42;;;;;;;5.80;5.13;;;;;;;;;;4946706;28;20518;-82
2022/05/31 00:26:09;;;;;;;7.10;5.40;;;;;;;;;;4947301;28;20555;-81
2022/05/31 00:28:35;;;;;;;6.13;5.43;;;;;;;;;;4945458;28;20039;-82
2022/05/31 00:31:02;;;;;;;7.10;5.93;;;;;;;;;;4948078;28;20047;-83
2022/05/31 00:33:29;;;;;;;6.70;4.40;;;;;;;;;;4946804;29;20487;-79
2022/05/31 00:35:56;;;;;;;7.57;4.80;;;;;;;;;;4951193;29;20062;-81
2022/05/31 00:38:22;;;;;;;5.55;4.50;;;;;;;;;;4957567;23;20044;-81
2022/05/31 00:40:48;;;;;;;5.10;4.53;;;;;;;;;;4918352;29;20127;-80
2022/05/31 00:43:20;;;;;;;5.45;4.93;;;;;;;;;;4934899;29;20619;-80
2022/05/31 00:45:50;;;;;;;6.82;4.93;;;;;;;;;;4934117;29;20052;-81
2022/05/31 00:48:49;;;;;;;6.25;5.07;;;;;;;;;;4935997;29;20040;-82
2022/05/31 00:51:16;;;;;;;7.82;4.72;;;;;;;;;;4914499;29;20436;-78
2022/05/31 00:54:04;;;;;;;6.57;4.72;;;;;;;;;;4931252;29;20074;-79
2022/05/31 00:56:31;;;;;;;5.38;4.30;;;;;;;;;;4930184;29;20035;-80
2022/05/31 00:58:59;;;;;;;5.55;4.70;;;;;;;;;;4912501;29;20456;-80
2022/05/31 01:01:26;;;;;;;6.97;5.22;;;;;;;;;;4930576;28;20063;-79
2022/05/31 01:03:52;;;;;;;5.80;5.07;;;;;;;;;;4912908;29;20040;-78
2022/05/31 01:06:19;;;;;;;5.80;5.30;;;;;;;;;;4931524;29;20452;-79
2022/05/31 01:08:46;;;;;;;6.55;5.13;;;;;;;;;;4929965;29;20040;-81
2022/05/31 01:11:14;;;;;;;6.78;5.47;;;;;;;;;;4930784;29;20144;-81
2022/05/31 01:13:41;;;;;;;7.32;5.50;;;;;;;;;;4928965;29;20035;-81
2022/05/31 01:16:08;;;;;;;7.47;5.93;;;;;;;;;;4926921;29;20134;-79
2022/05/31 01:18:35;;;;;;;5.72;5.13;;;;;;;;;;4927614;29;20138;-79
2022/05/31 01:21:01;;;;;;;5.72;5.22;;;;;;;;;;4931438;28;20043;-79
2022/05/31 01:26:22;;;;;;;6.97;6.03;;;;;;;;;;4792640;26;20122;-82
2022/05/31 01:29:06;;;;;;;7.30;5.20;;;;;;;;;;4924943;28;20500;-80
2022/05/31 01:31:39;;;;;;;6.53;5.93;;;;;;;;;;4946011;28;20055;-79
2022/05/31 01:34:24;;;;;;;7.95;5.43;;;;;;;;;;4948745;28;20141;-79
2022/05/31 01:36:52;;;;;;;6.13;5.53;;;;;;;;;;4930633;28;20504;-83
2022/05/31 01:39:21;;;;;;;6.53;5.85;;;;;;;;;;4907581;29;20504;-81
2022/05/31 01:42:04;;;;;;;8.00;6.90;;;;;;;;;;4949356;28;20039;-80
2022/05/31 01:44:32;;;;;;;10.45;7.75;;;;;;;;;;4951296;28;20137;-80
2022/05/31 01:47:18;;;;;;;11.18;7.82;;;;;;;;;;4952897;28;20110;-81
2022/05/31 01:49:46;;;;;;;9.25;7.72;;;;;;;;;;4909464;23;20409;-82
2022/05/31 01:52:13;;;;;;;8.75;7.88;;;;;;;;;;4892311;29;20604;-80
2022/05/31 01:54:39;;;;;;;8.27;7.30;;;;;;;;;;4897496;29;20067;-82
2022/05/31 01:57:07;;;;;;;9.30;6.65;;;;;;;;;;4892423;29;20115;-82
2022/05/31 01:59:36;;;;;;;7.13;6.40;;;;;;;;;;4896922;29;20041;-83
2022/05/31 02:02:27;;;;;;;9.02;7.03;;;;;;;;;;4905664;29;20059;-81
2022/05/31 02:04:53;;;;;;;10.27;6.65;;;;;;;;;;4891491;29;20060;-83
2022/05/31 02:07:21;;;;;;;7.57;6.03;;;;;;;;;;4895809;29;20048;-80
2022/05/31 02:09:49;;;;;;;10.55;6.20;;;;;;;;;;4928411;23;20047;-82
2022/05/31 02:12:23;;;;;;;8.75;6.20;;;;;;;;;;4910943;29;20139;-82
2022/05/31 02:14:49;;;;;;;;;;;;;;;;;;4916039;23;20060;-83
2022/05/31 02:17:18;;;;;;;7.25;5.40;;;;;;;;;;4923861;29;19929;-80
2022/05/31 02:19:44;;;;;;;6.55;5.70;;;;;;;;;;4909804;29;20047;-81
2022/05/31 02:22:12;;;;;;;8.05;5.72;;;;;;;;;;4908805;29;20100;-82
2022/05/31 02:24:39;;;;;;;6.75;6.15;;;;;;;;;;4911943;29;20079;-82
2022/05/31 02:27:05;;;;;;;6.50;5.43;;;;;;;;;;4907821;29;20131;-80
2022/05/31 02:29:32;;;;;;;6.18;5.63;;;;;;;;;;4909125;29;20048;-79
2022/05/31 02:31:59;;;;;;;6.70;5.82;;;;;;;;;;4908958;29;20048;-78
2022/05/31 02:34:27;;;;;;;7.10;5.53;;;;;;;;;;4909310;29;20462;-82
2022/05/31 02:36:54;;;;;;;6.43;5.75;;;;;;;;;;4909456;29;20131;-79
2022/05/31 02:39:20;;;;;;;7.32;6.07;;;;;;;;;;4908659;29;20055;-79
2022/05/31 02:41:46;;;;;;;9.48;5.93;;;;;;;;;;4911166;29;20813;-80
2022/05/31 02:44:12;;;;;;;17.30;6.03;;;;;;;;;;4910779;29;20044;-80
2022/05/31 02:46:39;;;;;;;7.97;5.68;;;;;;;;;;4911805;29;20044;-80
2022/05/31 02:49:06;;;;;;;12.18;5.60;;;;;;;;;;4905897;29;20048;-81
2022/05/31 02:51:40;;;;;;;16.45;5.07;;;;;;;;;;4904664;29;20437;-80
2022/05/31 02:54:07;;;;;;;10.32;5.13;;;;;;;;;;4905280;29;20063;-80
2022/05/31 02:56:33;;;;;;;11.88;4.60;;;;;;;;;;4907053;29;20042;-79
2022/05/31 02:58:59;;;;;;;7.00;4.97;;;;;;;;;;4906640;29;20063;-80
2022/05/31 03:01:30;;;;;;;6.28;4.65;;;;;;;;;;4904731;29;20044;-79
2022/05/31 03:03:56;;;;;;;11.88;5.32;;;;;;;;;;4905277;29;20140;-78
2022/05/31 03:06:23;;;;;;;10.27;5.32;;;;;;;;;;4907581;29;20083;-80
2022/05/31 03:08:49;;;;;;;5.45;4.95;;;;;;;;;;4913508;29;20040;-82
2022/05/31 03:11:34;;;;;;;5.75;5.15;;;;;;;;;;4914597;29;20044;-82
2022/05/31 03:14:20;;;;;;;6.82;6.05;;;;;;;;;;4916322;29;20148;-81
2022/05/31 03:16:47;;;;;;;4.80;4.32;;;;;;;;;;4891111;29;20046;-83
2022/05/31 03:19:19;;;;;;;9.32;4.53;;;;;;;;;;4909349;29;20471;-82
2022/05/31 03:21:51;;;;;;;5.90;4.95;;;;;;;;;;4915142;29;20828;-82
2022/05/31 03:24:19;;;;;;;7.55;4.78;;;;;;;;;;4914004;29;20047;-79
2022/05/31 03:26:48;;;;;;;7.47;5.18;;;;;;;;;;4897603;29;20035;-83
2022/05/31 03:29:15;;;;;;;4.95;4.10;;;;;;;;;;4912183;29;20051;-83
2022/05/31 03:31:41;;;;;;;6.45;4.40;;;;;;;;;;4895866;29;20515;-81
2022/05/31 03:34:07;;;;;;;6.10;4.70;;;;;;;;;;4911097;29;20562;-81
2022/05/31 03:36:34;;;;;;;11.13;4.78;;;;;;;;;;4911360;29;20051;-79
2022/05/31 03:39:00;;;;;;;7.07;4.93;;;;;;;;;;4912254;29;20044;-82
2022/05/31 03:41:26;;;;;;;5.80;4.43;;;;;;;;;;4910528;29;20063;-82
2022/05/31 03:43:52;;;;;;;10.93;4.30;;;;;;;;;;4931228;23;20047;-81
2022/05/31 03:46:19;;;;;;;4.97;4.28;;;;;;;;;;4905021;29;20040;-81
2022/05/31 03:48:45;;;;;;;7.07;3.90;;;;;;;;;;4937242;28;20048;-79
2022/05/31 03:51:12;;;;;;;10.90;4.55;;;;;;;;;;4934399;29;20404;-82
2022/05/31 03:53:38;;;;;;;9.63;4.60;;;;;;;;;;4943415;28;20039;-82
2022/05/31 03:56:05;;;;;;;5.75;4.32;;;;;;;;;;4934076;29;20049;-80
2022/05/31 03:58:32;;;;;;;6.75;4.90;;;;;;;;;;4942999;29;20118;-80
2022/05/31 04:00:58;;;;;;;5.53;4.38;;;;;;;;;;4947559;29;20287;-83
2022/05/31 04:03:25;;;;;;;7.43;4.78;;;;;;;;;;4922728;29;20565;-79
2022/05/31 04:05:51;;;;;;;5.15;4.75;;;;;;;;;;4939601;29;20388;-81
2022/05/31 04:08:19;;;;;;;5.57;4.88;;;;;;;;;;4935254;29;20028;-81
2022/05/31 04:10:45;;;;;;;6.75;5.03;;;;;;;;;;4921721;29;20138;-82
2022/05/31 04:13:12;;;;;;;9.45;6.90;;;;;;;;;;4937479;29;20046;-81
2022/05/31 04:15:39;;;;;;;13.52;7.68;;;;;;;;;;4937276;29;20055;-80
2022/05/31 04:18:05;;;;;;;8.82;7.93;;;;;;;;;;4940466;29;20143;-80
2022/05/31 04:26:42;;;;;;;11.13;9.38;;;;;;;;;;4922198;29;20483;-83
2022/05/31 04:29:08;;;;;;;12.75;8.70;;;;;;;;;;4934892;29;20062;-82
2022/05/31 04:31:34;;;;;;;9.75;8.60;;;;;;;;;;4935978;29;20488;-82
2022/05/31 04:34:00;;;;;;;11.27;9.40;;;;;;;;;;4941020;29;20046;-80
2022/05/31 04:36:26;;;;;;;14.05;9.77;;;;;;;;;;4936994;29;20049;-80
2022/05/31 04:38:52;;;;;;;13.15;9.60;;;;;;;;;;4917243;29;20040;-80
2022/05/31 04:41:21;;;;;;;12.48;9.75;;;;;;;;;;4921018;29;20047;-81
2022/05/31 04:43:47;;;;;;;14.48;9.93;;;;;;;;;;4916926;29;20074;-79
2022/05/31 04:46:15;;;;;;;13.90;9.45;;;;;;;;;;4931868;29;20146;-79
2022/05/31 04:48:41;;;;;;;12.07;9.65;;;;;;;;;;4934270;29;20049;-80
2022/05/31 04:51:07;;;;;;;10.38;8.75;;;;;;;;;;4916859;29;20043;-80
2022/05/31 04:53:34;;;;;;;14.73;10.18;;;;;;;;;;4938013;29;20059;-82
2022/05/31 04:56:03;;;;;;;11.82;9.50;;;;;;;;;;4938953;29;20032;-80
2022/05/31 04:58:29;;;;;;;13.10;10.70;;;;;;;;;;4928834;29;20102;-83
2022/05/31 05:00:55;;;;;;;13.60;11.27;;;;;;;;;;4934308;29;20048;-84
2022/05/31 05:03:21;;;;;;;17.50;13.07;;;;;;;;;;4934695;29;20054;-80
2022/05/31 05:05:47;;;;;;;15.27;13.10;;;;;;;;;;4934659;29;20044;-81
2022/05/31 05:08:14;;;;;;;13.77;11.90;;;;;;;;;;4924423;29;20039;-82
2022/05/31 05:10:46;;;;;;;16.70;12.88;;;;;;;;;;4928614;29;20050;-82
2022/05/31 05:13:25;;;;;;;16.33;12.02;;;;;;;;;;4930083;29;20062;-83
2022/05/31 05:15:53;;;;;;;17.25;11.80;;;;;;;;;;4931976;29;20043;-83
2022/05/31 05:18:19;;;;;;;19.65;12.20;;;;;;;;;;4933693;29;20054;-82
2022/05/31 05:20:46;;;;;;;18.60;11.73;;;;;;;;;;4933276;29;20079;-81
2022/05/31 05:23:12;;;;;;;13.35;11.15;;;;;;;;;;4933851;29;20056;-83
2022/05/31 05:25:38;;;;;;;18.13;10.45;;;;;;;;;;4932173;29;20476;-82
2022/05/31 05:30:38;;;;;;;19.10;9.95;;;;;;;;;;4930573;29;20036;-82
2022/05/31 05:30:50;;;;;;;10.57;9.23;;;;;;;;;;4916849;29;20090;-83
2022/05/31 05:33:17;;;;;;;13.60;9.90;;;;;;;;;;4934252;29;20529;-82
2022/05/31 05:35:43;;;;;;;14.73;9.35;;;;;;;;;;4930794;29;20054;-82
2022/05/31 05:38:09;;;;;;;13.07;9.32;;;;;;;;;;4933291;28;20183;-79
2022/05/31 05:40:36;;;;;;;14.95;8.95;;;;;;;;;;4930991;29;20130;-83
2022/05/31 05:43:02;;;;;;;14.80;9.07;;;;;;;;;;4939446;29;20066;-83
2022/05/31 05:45:28;;;;;;;10.35;8.57;;;;;;;;;;4926383;29;20051;-81
2022/05/31 05:47:54;;;;;;;12.57;8.60;;;;;;;;;;4934502;29;20143;-82
2022/05/31 05:50:20;;;;;;;10.20;8.20;;;;;;;;;;4939483;29;20043;-81
2022/05/31 05:52:49;;;;;;;12.27;7.80;;;;;;;;;;4941804;29;20071;-79
2022/05/31 05:55:15;;;;;;;10.40;8.43;;;;;;;;;;4929561;29;20055;-82
2022/05/31 05:57:41;;;;;;;11.90;8.32;;;;;;;;;;4934629;29;20050;-81
2022/05/31 06:00:07;;;;;;;21.85;9.10;;;;;;;;;;4938657;28;20048;-81
2022/05/31 06:02:34;;;;;;;9.07;8.15;;;;;;;;;;4940777;29;20045;-84
2022/05/31 06:05:07;;;;;;;10.25;8.20;;;;;;;;;;4934768;29;20155;-78
2022/05/31 06:07:40;;;;;;;14.50;9.45;;;;;;;;;;4942065;29;20055;-80
2022/05/31 06:10:29;;;;;;;9.30;7.88;;;;;;;;;;4936027;29;20086;-79
2022/05/31 06:13:06;;;;;;;11.23;8.35;;;;;;;;;;4912679;29;20110;-79
2022/05/31 06:15:34;;;;;;;10.55;7.35;;;;;;;;;;4939880;29;20042;-76
2022/05/31 06:18:01;;;;;;;13.18;8.25;;;;;;;;;;4921129;29;20062;-77
2022/05/31 06:20:29;;;;;;;13.73;7.72;;;;;;;;;;4937242;29;20039;-78
2022/05/31 06:22:55;;;;;;;10.73;8.05;;;;;;;;;;4935264;29;20499;-79
2022/05/31 06:25:21;;;;;;;13.50;9.02;;;;;;;;;;4927899;29;20043;-77
2022/05/31 06:27:48;;;;;;;11.07;8.05;;;;;;;;;;4909758;29;20485;-80
2022/05/31 06:30:14;;;;;;;9.45;7.78;;;;;;;;;;4932230;29;20508;-77
2022/05/31 06:32:40;;;;;;;9.13;8.23;;;;;;;;;;4920587;29;20131;-78
2022/05/31 06:38:06;;;;;;;7.97;7.28;;;;;;;;;;4992004;23;20055;-80
2022/05/31 06:40:33;;;;;;;10.15;8.05;;;;;;;;;;4910846;29;20073;-82
2022/05/31 06:42:59;;;;;;;10.45;7.63;;;;;;;;;;4919142;29;20036;-80
2022/05/31 06:45:26;;;;;;;11.50;7.60;;;;;;;;;;4918041;29;20040;-81
2022/05/31 06:47:52;;;;;;;8.75;7.35;;;;;;;;;;4933307;29;20044;-84
2022/05/31 06:50:18;;;;;;;12.05;7.32;;;;;;;;;;4935264;29;20099;-83
2022/05/31 06:58:16;;;;;;;15.77;7.25;;;;;;;;;;4934818;29;20395;-82
2022/05/31 07:00:42;;;;;;;17.92;6.72;;;;;;;;;;4941150;29;20134;-82
2022/05/31 07:03:09;;;;;;;10.95;6.60;;;;;;;;;;4924205;29;20040;-85
2022/05/31 07:05:35;;;;;;;11.88;7.32;;;;;;;;;;4941380;29;20055;-81
2022/05/31 07:08:02;;;;;;;10.27;7.07;;;;;;;;;;4938947;29;20043;-87
2022/05/31 07:10:28;;;;;;;14.38;7.13;;;;;;;;;;4936853;29;20051;-86
2022/05/31 07:12:54;;;;;;;10.23;6.80;;;;;;;;;;4937590;29;20048;-82
2022/05/31 07:15:20;;;;;;;9.95;7.72;;;;;;;;;;4921225;29;20137;-80
2022/05/31 07:17:46;;;;;;;10.68;7.03;;;;;;;;;;4938688;29;20050;-86
2022/05/31 07:20:13;;;;;;;10.55;7.40;;;;;;;;;;4922778;29;20159;-86
2022/05/31 07:22:39;;;;;;;14.73;7.10;;;;;;;;;;4934033;29;20086;-83
2022/05/31 07:25:06;;;;;;;8.25;6.43;;;;;;;;;;4933585;29;20036;-83
2022/05/31 07:27:33;;;;;;;8.90;7.68;;;;;;;;;;4935940;29;20078;-83
2022/05/31 07:29:59;;;;;;;9.18;7.07;;;;;;;;;;4920949;29;20043;-78
2022/05/31 07:32:26;;;;;;;9.20;6.93;;;;;;;;;;4914357;29;20047;-79
2022/05/31 07:34:52;;;;;;;9.82;7.30;;;;;;;;;;4941293;29;20043;-87
2022/05/31 07:37:18;;;;;;;7.55;6.18;;;;;;;;;;4916400;29;20055;-77
2022/05/31 07:39:44;;;;;;;8.48;6.90;;;;;;;;;;4911037;29;20131;-82
2022/05/31 07:42:11;;;;;;;10.63;7.07;;;;;;;;;;4932956;29;20051;-78
2022/05/31 07:44:37;;;;;;;8.30;6.55;;;;;;;;;;4935573;29;20047;-81
2022/05/31 07:47:03;;;;;;;6.70;6.05;;;;;;;;;;4931569;29;20076;-83
2022/05/31 07:49:29;;;;;;;7.43;5.95;;;;;;;;;;4928478;29;20055;-81
2022/05/31 07:51:56;;;;;;;7.10;6.40;;;;;;;;;;4933408;29;20048;-80
2022/05/31 07:54:22;;;;;;;7.93;6.13;;;;;;;;;;4928656;29;20054;-79
2022/05/31 07:56:48;;;;;;;8.55;5.55;;;;;;;;;;4911021;29;20055;-79
2022/05/31 07:59:15;;;;;;;9.75;6.13;;;;;;;;;;4934829;29;20055;-79
2022/05/31 08:01:41;;;;;;;6.20;5.60;;;;;;;;;;4929879;29;20503;-80
2022/05/31 08:04:07;;;;;;;7.85;5.15;;;;;;;;;;4915592;29;20043;-84
2022/05/31 08:09:27;;;;;;;8.07;5.97;;;;;;;;;;4929843;29;20051;-83
2022/05/31 08:11:54;;;;;;;6.97;5.60;;;;;;;;;;4937104;29;20040;-79
2022/05/31 08:14:20;;;;;;;7.78;5.45;;;;;;;;;;4920901;29;20134;-79
2022/05/31 08:16:46;;;;;;;8.20;5.13;;;;;;;;;;4915038;29;20427;-81
2022/05/31 08:19:12;;;;;;;6.13;5.32;;;;;;;;;;4943589;29;20113;-80
2022/05/31 08:21:38;;;;;;;8.38;4.78;;;;;;;;;;4937645;29;20065;-81
2022/05/31 08:24:11;;;;;;;9.05;5.40;;;;;;;;;;4940930;29;20031;-85
2022/05/31 08:26:37;;;;;;;5.53;4.95;;;;;;;;;;4956133;29;20078;-82
2022/05/31 08:29:05;;;;;;;5.07;4.57;;;;;;;;;;4951042;29;20062;-82
2022/05/31 08:34:48;;;;;;;5.28;4.55;;;;;;;;;;4953988;29;20149;-84
2022/05/31 08:37:16;;;;;;;5.97;4.65;;;;;;;;;;4960562;29;20122;-84
2022/05/31 08:39:42;;;;;;;7.70;4.43;;;;;;;;;;4958681;28;20051;-81
2022/05/31 08:42:14;;;;;;;6.35;4.35;;;;;;;;;;4961269;29;20387;-86
2022/05/31 08:45:00;;;;;;;5.47;4.47;;;;;;;;;;4941385;29;20051;-85
2022/05/31 08:47:36;;;;;;;8.00;4.13;;;;;;;;;;4960303;28;20050;-85
2022/05/31 08:53:10;;;;;;;5.07;3.72;;;;;;;;;;4959599;29;20062;-80
2022/05/31 08:58:28;;;;;;;5.22;4.45;;;;;;;;;;4942353;28;20058;-80
2022/05/31 09:00:55;;;;;;;10.05;3.25;;;;;;;;;;4958696;29;20051;-86
2022/05/31 09:03:22;;;;;;;5.20;3.97;;;;;;;;;;4951256;29;20055;-82
2022/05/31 09:06:15;;;;;;;7.00;4.38;;;15.10;99.90;;;;;;4934373;29;20087;-83
2022/05/31 09:08:48;;;;;;;6.25;4.05;;;;;;;;;;4940370;29;20047;-81
2022/05/31 09:11:14;;;;;;;8.23;3.75;;;;;;;;;;4939547;29;20059;-82
2022/05/31 09:13:43;;;;;;;6.72;4.07;;;;;;;;;;4957132;28;20433;-81
2022/05/31 09:16:13;;;;;;;5.30;3.75;;;;;;;;;;4957297;28;20094;-80
2022/05/31 09:18:47;;;;;;;5.75;3.63;;;;;;;;;;4962479;28;20039;-84
2022/05/31 09:21:17;;;;;;;9.40;3.90;;;;;;;;;;4957048;28;20515;-83
2022/05/31 09:23:45;;;;;;;7.47;4.55;;;;;;;;;;4953341;29;20087;-84
2022/05/31 09:26:20;;;;;;;6.82;3.42;;;;;;;;;;4950254;29;20047;-82
2022/05/31 09:28:49;;;;;;;8.02;3.83;;;;;;;;;;4952939;29;20129;-82
2022/05/31 09:31:44;;;;;;;5.82;3.92;;;;;;;;;;4944913;29;20055;-82
2022/05/31 09:34:22;;;;;;;6.47;3.88;;;;;;;;;;4955046;28;20094;-79
2022/05/31 09:36:56;;;;;;;5.18;4.03;;;;;;;;;;4935724;29;20099;-85
2022/05/31 09:39:26;;;;;;;4.72;4.03;;;;;;;;;;4934413;29;20054;-81
2022/05/31 09:41:58;;;;;;;8.10;4.10;;;;;;;;;;4952418;29;20047;-80
2022/05/31 09:44:28;;;;;;;6.40;3.58;;;;;;;;;;4947228;29;20102;-82
2022/05/31 09:47:00;;;;;;;5.95;3.50;;;;;;;;;;4954437;28;20043;-86
2022/05/31 09:49:29;;;;;;;9.00;3.80;;;;;;;;;;4950065;28;20036;-85
2022/05/31 09:51:55;;;;;;;7.10;3.67;;;;;;;;;;4951435;28;20106;-86
2022/05/31 09:57:15;;;;;;;5.88;3.30;;;;;;;;;;4927149;29;20086;-86
2022/05/31 09:59:51;;;;;;;17.33;2.85;;;;;;;;;;4934185;29;20147;-85
2022/05/31 10:02:30;;;;;;;6.53;2.70;;;;;;;;;;4939986;29;20566;-87
2022/05/31 10:05:08;;;;;;;4.55;2.95;;;;;;;;;;4939680;29;20059;-86
2022/05/31 10:07:36;;;;;;;5.75;2.80;;;;;;;;;;4923320;29;20138;-86
2022/05/31 10:10:11;;;;;;;5.63;2.90;;;;;;;;;;4902550;29;20058;-86
2022/05/31 10:16:08;;;;;;;6.25;3.35;;;;;;;;;;4909997;29;20099;-86
2022/05/31 10:18:44;;;;;;;8.48;3.10;;;;;;;;;;4932252;29;20043;-86
2022/05/31 10:21:11;;;;;;;5.57;2.80;;;;;;;;;;4907813;29;20051;-86
2022/05/31 10:23:45;;;;;;;5.05;2.80;;;;;;;;;;5003140;23;20056;-86
2022/05/31 10:26:31;;;;;;;3.55;2.55;;;;;;;;;;4899104;29;20246;-85
2022/05/31 10:29:06;;;;;;;8.77;3.30;;;;;;;;;;4915097;29;20152;-86
2022/05/31 10:31:34;;;;;;;5.22;2.42;;;;;;;;;;4900555;29;20184;-84
2022/05/31 10:34:02;;;;;;;3.78;2.60;;;;;;;;;;4890116;29;20072;-85
2022/05/31 10:36:30;;;;;;;4.03;2.97;;;;;;;;;;4900398;29;20052;-84
2022/05/31 10:39:21;;;;;;;5.65;2.85;;;;;;;;;;4896508;29;20052;-85
2022/05/31 10:41:49;;;;;;;4.50;2.53;;;;;;;;;;4891493;29;20080;-84
2022/05/31 10:44:19;;;;;;;5.28;2.80;;;;;;;;;;4893728;29;20052;-84
2022/05/31 10:46:46;;;;;;;4.40;2.38;;;;;;;;;;4917170;29;20042;-86
2022/05/31 10:49:17;;;;;;;5.22;2.03;;;;;;;;;;4907927;29;20046;-85
2022/05/31 10:54:37;;;;;;;2.88;2.00;;;;;;;;;;4936464;23;20056;-85
2022/05/31 10:57:13;;;;;;;4.57;2.50;;;;;;;;;;4905200;29;20112;-85
2022/05/31 10:59:45;;;;;;;3.58;2.53;;;;;;;;;;4918085;29;20091;-85
2022/05/31 11:02:30;;;;;;;5.35;2.78;;;;;;;;;;4899931;29;20746;-85
2022/05/31 11:05:08;;;;;;;5.10;2.30;;;;;;;;;;4897979;29;20048;-86
2022/05/31 11:07:41;;;;;;;5.22;3.13;;;;;;;;;;4909329;23;20067;-85
2022/05/31 11:16:22;;;;;;;3.60;2.72;;;;;;;;;;4940489;23;20067;-85
2022/05/31 11:18:56;;;;;;;5.20;3.00;;;;;;;;;;4911781;29;20504;-85
2022/05/31 11:21:29;;;;;;;9.32;3.72;;;;;;;;;;4946602;28;21920;-85
2022/05/31 11:24:16;;;;;;;5.53;3.40;;;;;;;;;;4918240;29;20341;-86
2022/05/31 11:26:45;;;;;;;6.65;3.55;;;;;;;;;;4908344;29;20298;-85
2022/05/31 11:29:16;;;;;;;6.05;3.65;;;;;;;;;;4916374;29;20056;-84
2022/05/31 11:31:42;;;;;;;4.88;3.78;;;;;;;;;;4933763;28;20075;-85
2022/05/31 11:34:29;;;;;;;4.93;3.50;;;;;;;;;;4910345;29;20043;-86
2022/05/31 11:37:04;;;;;;;7.15;3.70;;;;;;;;;;4932384;29;20087;-86
2022/05/31 12:03:32;;;;;;;4.45;3.83;;;;;;;;;;4926451;28;20102;-85
2022/05/31 12:09:30;;;;;;;6.10;4.18;;;;;;;;;;4892052;29;20053;-85
2022/05/31 12:12:02;;;;;;;7.82;3.47;;;;;;;;;;4892883;29;20049;-83
2022/05/31 12:14:29;;;;;;;6.32;3.50;;;;;;;;;;4890017;29;20455;-84
2022/05/31 12:16:56;;;;;;;8.05;3.67;;;;;;;;;;4889432;29;20105;-85
2022/05/31 12:19:40;;;;;;;6.43;3.83;;;;;;;;;;4892210;29;20043;-83
2022/05/31 12:22:12;;;;;;;3.85;3.10;;;;;;;;;;4905131;29;20052;-83
2022/05/31 12:25:03;;;;;;;5.97;3.58;;;;;;;;;;4891400;29;20055;-84
2022/05/31 12:27:56;;;;;;;5.22;3.55;;;;;;;;;;4896464;29;20185;-84
2022/05/31 12:30:31;;;;;;;4.10;3.00;;;;;;;;;;4891764;29;20563;-84
2022/05/31 12:35:50;;;;;;;3.65;2.42;;;;;;;;;;4870831;29;20056;-84
2022/05/31 12:38:16;;;;;;;3.55;2.40;;;;;;;;;;4890890;29;20111;-84
2022/05/31 12:40:49;;;;;;;4.22;2.20;;;;;;;;;;4889434;29;20045;-84
2022/05/31 12:43:16;;;;;;;4.50;2.10;;;;;;;;;;4894882;29;20052;-84
2022/05/31 12:45:44;;;;;;;5.32;2.17;;;;;;;;;;4894716;29;20048;-84
2022/05/31 12:48:10;;;;;;;2.30;1.63;;;;;;;;;;4893535;29;20055;-85
2022/05/31 12:54:03;;;;;;;4.35;2.58;;;;;;;;;;4893908;29;20044;-84
2022/05/31 12:59:40;;;;;;;3.72;2.00;;;;;;;;;;4887338;29;20527;-84
2022/05/31 13:02:18;;;;;;;7.60;2.20;;;;;;;;;;4894224;29;20127;-84
2022/05/31 13:05:13;;;;;;;5.65;2.10;;;;;;;;;;4892515;29;20068;-84
2022/05/31 13:21:19;;;;;;;4.53;2.10;;;;;;;;;;4964631;28;20510;-84
2022/05/31 13:23:47;;;;;;;5.75;2.22;;;;;;;;;;4958204;28;20035;-84
2022/05/31 13:26:25;;;;;;;3.15;2.15;;;;;;;;;;4961497;28;20062;-84
2022/05/31 13:32:35;;;;;;;5.07;2.60;;;;;;;;;;4959682;28;20078;-85
2022/05/31 13:35:06;;;;;;;4.18;2.53;;;;;;;;;;4953975;28;20039;-85
2022/05/31 13:37:33;;;;;;;2.85;2.10;;;;;;;;;;4957569;28;20035;-86
2022/05/31 13:39:59;;;;;;;4.57;2.72;;;;;;;;;;4935006;28;20040;-84
2022/05/31 13:42:36;;;;;;;6.75;2.60;;;;;;;;;;4932779;28;20071;-84
2022/05/31 13:45:07;;;;;;;6.63;3.08;;;;;;;;;;4949719;28;20090;-83
2022/05/31 13:47:34;;;;;;;4.03;2.75;;;;;;;;;;4952605;28;20053;-84
2022/05/31 13:50:06;;;;;;;4.75;3.30;;;;;;;;;;4931195;28;20043;-84
2022/05/31 13:52:39;;;;;;;6.22;2.90;;;;;;;;;;4941547;29;20054;-82
2022/05/31 13:55:08;;;;;;;8.75;3.17;;;;;;;;;;4949225;28;20133;-84
2022/05/31 13:57:34;;;;;;;5.25;2.75;;;;;;;;;;4958151;28;20035;-85
2022/05/31 14:03:03;;;;;;;5.18;2.90;;;;;;;;;;5110815;23;20074;-83
2022/05/31 14:05:32;;;;;;;5.78;3.55;;;;;;;;;;4954570;28;20046;-84
2022/05/31 14:10:46;;;;;;;3.80;2.63;;;;;;;;;;5583964;23;20058;-83
2022/05/31 14:13:18;;;;;;;4.18;3.03;;;;;;;;;;4923445;28;20054;-84
2022/05/31 14:15:44;;;;;;;5.32;2.90;;;;;;;;;;4911742;28;20515;-86
2022/05/31 14:21:04;;;;;;;4.18;2.65;;;;;;;;;;4990649;23;20058;-83
2022/05/31 14:23:30;;;;;;;3.65;2.53;;;;;;;;;;4949495;29;20070;-83
2022/05/31 14:25:57;;;;;;;6.72;3.00;;;;;;;;;;4960650;28;20054;-82
2022/05/31 14:28:25;;;;;;;4.28;2.80;;;;;;;;;;4955311;28;20102;-82
2022/05/31 14:31:01;;;;;;;7.13;3.40;;;;;;;;;;4971553;28;20027;-84
2022/05/31 14:33:33;;;;;;;4.53;2.88;;;;;;;;;;4967940;28;20043;-84
2022/05/31 14:36:11;;;;;;;4.70;2.80;;;;;;;;;;4974212;28;20399;-83
2022/05/31 14:42:17;;;;;;;7.38;3.17;;;;;;;;;;4927925;29;20042;-84
2022/05/31 14:44:47;;;;;;;5.38;2.80;;;;;;;;;;4912700;29;20059;-82
2022/05/31 14:47:13;;;;;;;6.65;3.70;;;;;;;;;;4913546;29;20055;-84
2022/05/31 14:49:44;;;;;;;4.53;3.35;;;;;;;;;;4931929;29;20289;-83
2022/05/31 14:52:29;;;;;;;5.25;3.40;;;;;;;;;;4918649;29;20086;-86
2022/05/31 14:55:09;;;;;;;3.90;3.42;;;;;;;;;;4915877;29;20047;-84
2022/05/31 15:00:21;;;;;;;9.98;3.97;;;;;;;;;;4931526;29;20194;-84
2022/05/31 15:02:47;;;;;;;5.03;3.10;;;;;;;;;;4936315;29;20047;-86
2022/05/31 15:05:31;;;;;;;4.40;3.45;;;;;;;;;;4919621;29;20059;-84
2022/05/31 15:08:00;;;;;;;8.90;4.15;;;;;;;;;;4913931;23;20153;-85
2022/05/31 15:10:33;;;;;;;5.03;3.92;;;;;;;;;;4932243;29;20445;-86
2022/05/31 15:21:52;;;;;;;5.35;4.40;;;;;;;;;;4944330;23;20059;-85
2022/05/31 15:24:21;;;;;;;6.65;4.28;;;;;;;;;;4907585;29;20146;-85
2022/05/31 15:31:59;;;;;;;8.20;4.85;;;;;;;;;;5939543;23;20026;-87
2022/05/31 15:34:25;;;;;;;10.38;5.55;;;;;;;;;;4904480;29;20094;-86
2022/05/31 15:36:51;;;;;;;9.35;4.15;;;;;;;;;;4901316;29;20100;-85
2022/05/31 15:39:17;;;;;;;7.47;4.55;;;;;;;;;;4928865;23;20118;-86
2022/05/31 15:41:43;;;;;;;15.35;9.45;;;;;;;;;;4954554;28;20093;-86
2022/05/31 15:51:29;;;;;;;7.75;6.53;;;;;;;;;;4957634;23;20059;-85
2022/05/31 15:53:56;;;;;;;14.43;6.38;;;;;;;;;;4866350;29;20075;-85
2022/05/31 16:02:36;;;;;;;6.95;5.15;;;;;;;;;;4975107;23;20099;-85
2022/05/31 16:05:03;;;;;;;6.57;5.10;;;;;;;;;;4925438;29;20082;-84
2022/05/31 16:14:04;;;;;;;7.55;4.90;;;;;;;;;;4947484;29;20077;-85
2022/05/31 16:16:42;;;;;;;7.55;4.47;;;;;;;;;;4940265;29;20059;-85
2022/05/31 16:19:08;;;;;;;8.02;4.15;;;;;;;;;;4907889;29;20047;-87
2022/05/31 16:21:43;;;;;;;5.65;4.57;;;;;;;;;;4917388;29;20051;-85
2022/05/31 16:41:57;;;;;;;3.25;2.83;;;;;;;;;;4884530;29;20289;-84
2022/05/31 16:50:31;;;;;;;2.95;2.75;;;;;;;;;;4948254;28;20063;-87
2022/05/31 16:53:00;;;;;;;6.32;3.90;;;;;;;;;;4921775;29;20804;-86
2022/05/31 16:58:04;;;;;;;8.50;4.60;;;;;;;;;;5021008;23;20055;-89
2022/05/31 17:00:36;;;;;;;11.15;4.55;;;;;;;;;;4945461;29;20042;-85
2022/05/31 17:18:12;;;;;;;14.40;4.10;;;;;;;;;;4910634;29;20091;-83
2022/05/31 17:24:35;;;;;;;6.85;3.65;;;;;;;;;;5070488;23;20090;-83
2022/05/31 17:29:30;;;;;;;8.93;3.70;;;;;;;;;;4937349;23;20415;-84
2022/05/31 17:32:03;;;;;;;8.80;3.63;;;;;;;;;;4933325;29;20187;-83
2022/05/31 17:34:29;;;;;;;7.47;3.22;;;;;;;;;;4896831;29;20052;-83
2022/05/31 17:36:55;;;;;;;7.75;3.45;;;;;;;;;;4898296;29;20056;-84
2022/05/31 17:41:55;;;;;;;7.18;3.10;;;;;;;;;;4957015;23;20070;-84
2022/05/31 17:44:24;;;;;;;9.30;3.67;;;;;;;;;;4942405;28;20065;-86
2022/05/31 17:46:51;;;;;;;8.95;3.25;;;;;;;;;;4940347;29;20115;-85
2022/05/31 17:49:17;;;;;;;8.45;3.50;;;;;;;;;;4918003;28;20035;-84
2022/05/31 17:51:44;;;;;;;10.40;3.67;;;;;;;;;;4933819;29;20134;-86
2022/05/31 17:54:27;;;;;;;14.27;3.95;;;;;;;;;;4949400;28;20094;-84
2022/05/31 18:00:10;;;;;;;7.60;4.07;;;;;;;;;;4933167;29;20044;-84
2022/05/31 18:02:36;;;;;;;7.50;3.45;;;;;;;;;;4930958;28;20047;-85
2022/05/31 18:05:09;;;;;;;5.82;3.45;;;;;;;;;;4958505;23;20047;-86
2022/05/31 18:07:36;;;;;;;5.63;3.20;;;;;;;;;;4932927;29;20043;-83
2022/05/31 18:12:59;;;;;;;7.47;3.90;;;;;;;;;;4977530;23;20066;-83
2022/05/31 18:15:25;;;;;;;7.15;4.22;;;;;;;;;;4964291;28;20134;-83
2022/05/31 18:17:51;;;;;;;7.40;3.60;;;;;;;;;;4971589;28;20054;-84